sensor_id;sensor_type;location;lat;lon;timestamp;pressure;altitude;pressure_sealevel;temperature;humidity
14295;BME280;7231;59.370;18.016;2023-03-04T00:00:07;100109.72;;;0.74;46.28
14295;BME280;7231;59.370;18.016;2023-03-04T00:02:35;100106.19;;;0.72;46.23
14295;BME280;7231;59.370;18.016;2023-03-04T00:05:03;100112.06;;;0.70;46.38
14295;BME280;7231;59.370;18.016;2023-03-04T00:07:31;100081.22;;;0.56;46.01
14295;BME280;7231;59.370;18.016;2023-03-04T00:10:00;100105.75;;;0.64;46.13
14295;BME280;7231;59.370;18.016;2023-03-04T00:12:28;100106.56;;;0.63;45.89
14295;BME280;7231;59.370;18.016;2023-03-04T00:14:55;100091.78;;;0.61;46.09
14295;BME280;7231;59.370;18.016;2023-03-04T00:17:25;100103.72;;;0.59;46.13
14295;BME280;7231;59.370;18.016;2023-03-04T00:19:55;100094.03;;;0.55;45.88
14295;BME280;7231;59.370;18.016;2023-03-04T00:22:23;100080.19;;;0.38;45.64
14295;BME280;7231;59.370;18.016;2023-03-04T00:24:51;100106.41;;;0.46;46.12
14295;BME280;7231;59.370;18.016;2023-03-04T00:27:19;100102.06;;;0.45;46.04
14295;BME280;7231;59.370;18.016;2023-03-04T00:29:47;100098.50;;;0.43;45.81
14295;BME280;7231;59.370;18.016;2023-03-04T00:32:15;100109.53;;;0.40;46.28
14295;BME280;7231;59.370;18.016;2023-03-04T00:34:45;100078.38;;;0.21;46.30
14295;BME280;7231;59.370;18.016;2023-03-04T00:37:13;100098.00;;;0.33;46.09
14295;BME280;7231;59.370;18.016;2023-03-04T00:39:41;100097.00;;;0.31;45.92
14295;BME280;7231;59.370;18.016;2023-03-04T00:42:09;100113.28;;;0.30;46.26
14295;BME280;7231;59.370;18.016;2023-03-04T00:44:37;100105.56;;;0.30;45.63
14295;BME280;7231;59.370;18.016;2023-03-04T00:47:05;100072.78;;;0.13;45.86
14295;BME280;7231;59.370;18.016;2023-03-04T00:49:33;100110.53;;;0.27;45.46
14295;BME280;7231;59.370;18.016;2023-03-04T00:52:02;100106.19;;;0.26;45.81
14295;BME280;7231;59.370;18.016;2023-03-04T00:54:30;100096.31;;;0.19;45.81
14295;BME280;7231;59.370;18.016;2023-03-04T00:56:58;100086.00;;;0.19;45.64
14295;BME280;7231;59.370;18.016;2023-03-04T00:59:26;100090.91;;;0.15;45.74
14295;BME280;7231;59.370;18.016;2023-03-04T01:01:54;100102.81;;;0.13;46.25
14295;BME280;7231;59.370;18.016;2023-03-04T01:04:22;99910.78;;;-1.02;46.01
14295;BME280;7231;59.370;18.016;2023-03-04T01:06:50;100101.47;;;0.05;46.01
14295;BME280;7231;59.370;18.016;2023-03-04T01:09:20;100097.94;;;0.03;46.41
14295;BME280;7231;59.370;18.016;2023-03-04T01:11:48;100088.41;;;0.02;46.24
14295;BME280;7231;59.370;18.016;2023-03-04T01:14:15;100099.31;;;-0.04;46.07
14295;BME280;7231;59.370;18.016;2023-03-04T01:16:43;100096.09;;;0.00;45.92
14295;BME280;7231;59.370;18.016;2023-03-04T01:19:11;100095.22;;;-0.01;46.14
14295;BME280;7231;59.370;18.016;2023-03-04T01:21:40;100105.44;;;-0.02;46.40
14295;BME280;7231;59.370;18.016;2023-03-04T01:24:08;100103.47;;;-0.06;46.12
14295;BME280;7231;59.370;18.016;2023-03-04T01:26:38;100056.91;;;-0.39;46.33
14295;BME280;7231;59.370;18.016;2023-03-04T01:29:06;100108.09;;;-0.15;46.47
14295;BME280;7231;59.370;18.016;2023-03-04T01:31:34;100104.19;;;-0.23;46.42
14295;BME280;7231;59.370;18.016;2023-03-04T01:34:02;100087.81;;;-0.39;46.49
14295;BME280;7231;59.370;18.016;2023-03-04T01:36:30;100063.66;;;-0.55;46.69
14295;BME280;7231;59.370;18.016;2023-03-04T01:38:58;100102.31;;;-0.41;46.71
14295;BME280;7231;59.370;18.016;2023-03-04T01:41:27;100113.25;;;-0.30;46.62
14295;BME280;7231;59.370;18.016;2023-03-04T01:43:58;100109.78;;;-0.30;47.14
14295;BME280;7231;59.370;18.016;2023-03-04T01:46:29;100107.09;;;-0.32;47.02
14295;BME280;7231;59.370;18.016;2023-03-04T01:48:57;100112.97;;;-0.35;46.84
14295;BME280;7231;59.370;18.016;2023-03-04T01:51:26;100103.28;;;-0.39;46.71
14295;BME280;7231;59.370;18.016;2023-03-04T01:53:54;100099.72;;;-0.41;46.79
14295;BME280;7231;59.370;18.016;2023-03-04T01:56:24;100106.47;;;-0.43;47.00
14295;BME280;7231;59.370;18.016;2023-03-04T01:59:11;100100.34;;;-0.45;47.04
14295;BME280;7231;59.370;18.016;2023-03-04T02:01:40;100100.06;;;-0.49;46.97
14295;BME280;7231;59.370;18.016;2023-03-04T02:04:10;100088.69;;;-0.53;46.77
14295;BME280;7231;59.370;18.016;2023-03-04T02:06:39;100081.59;;;-0.57;47.05
14295;BME280;7231;59.370;18.016;2023-03-04T02:09:08;100076.25;;;-0.60;47.08
14295;BME280;7231;59.370;18.016;2023-03-04T02:11:37;100089.03;;;-0.61;46.91
14295;BME280;7231;59.370;18.016;2023-03-04T02:14:06;100084.59;;;-0.64;46.88
14295;BME280;7231;59.370;18.016;2023-03-04T02:16:36;100077.28;;;-0.71;46.58
14295;BME280;7231;59.370;18.016;2023-03-04T02:19:08;100097.09;;;-0.70;46.32
14295;BME280;7231;59.370;18.016;2023-03-04T02:21:38;100086.69;;;-0.72;46.50
14295;BME280;7231;59.370;18.016;2023-03-04T02:24:13;100081.09;;;-0.79;46.49
14295;BME280;7231;59.370;18.016;2023-03-04T02:26:44;100077.09;;;-0.74;46.12
14295;BME280;7231;59.370;18.016;2023-03-04T02:29:14;100078.69;;;-0.76;46.27
14295;BME280;7231;59.370;18.016;2023-03-04T02:31:44;100013.66;;;-1.16;46.07
14295;BME280;7231;59.370;18.016;2023-03-04T02:34:15;100085.34;;;-0.80;46.11
14295;BME280;7231;59.370;18.016;2023-03-04T02:36:44;100070.53;;;-0.84;45.93
14295;BME280;7231;59.370;18.016;2023-03-04T02:39:22;100083.28;;;-0.85;45.88
14295;BME280;7231;59.370;18.016;2023-03-04T02:41:54;100094.47;;;-0.85;45.69
14295;BME280;7231;59.370;18.016;2023-03-04T02:44:24;100085.88;;;-0.85;45.60
14295;BME280;7231;59.370;18.016;2023-03-04T02:46:53;100090.03;;;-0.87;45.57
14295;BME280;7231;59.370;18.016;2023-03-04T02:49:23;100058.03;;;-1.06;45.42
14295;BME280;7231;59.370;18.016;2023-03-04T02:51:53;100084.88;;;-0.87;45.42
14295;BME280;7231;59.370;18.016;2023-03-04T02:54:25;100093.41;;;-0.88;45.09
14295;BME280;7231;59.370;18.016;2023-03-04T02:56:56;100088.66;;;-0.95;44.46
14295;BME280;7231;59.370;18.016;2023-03-04T02:59:24;100117.72;;;-0.83;44.34
14295;BME280;7231;59.370;18.016;2023-03-04T03:01:52;100112.59;;;-0.83;44.09
14295;BME280;7231;59.370;18.016;2023-03-04T03:04:21;100111.59;;;-0.85;43.88
14295;BME280;7231;59.370;18.016;2023-03-04T03:06:49;100121.09;;;-0.84;43.75
14295;BME280;7231;59.370;18.016;2023-03-04T03:09:18;100090.22;;;-0.84;43.56
14295;BME280;7231;59.370;18.016;2023-03-04T03:11:45;100102.28;;;-0.83;43.21
14295;BME280;7231;59.370;18.016;2023-03-04T03:14:15;100104.88;;;-0.83;43.15
14295;BME280;7231;59.370;18.016;2023-03-04T03:16:43;100110.63;;;-0.87;42.76
14295;BME280;7231;59.370;18.016;2023-03-04T03:19:11;100094.09;;;-0.91;43.03
14295;BME280;7231;59.370;18.016;2023-03-04T03:21:38;100094.81;;;-0.93;42.55
14295;BME280;7231;59.370;18.016;2023-03-04T03:24:06;100077.72;;;-1.06;42.58
14295;BME280;7231;59.370;18.016;2023-03-04T03:26:34;100090.88;;;-1.02;42.57
14295;BME280;7231;59.370;18.016;2023-03-04T03:29:02;100088.91;;;-1.06;42.63
14295;BME280;7231;59.370;18.016;2023-03-04T03:31:32;100092.19;;;-1.08;42.56
14295;BME280;7231;59.370;18.016;2023-03-04T03:34:00;100059.75;;;-1.19;42.35
14295;BME280;7231;59.370;18.016;2023-03-04T03:36:28;100094.28;;;-1.16;42.39
14295;BME280;7231;59.370;18.016;2023-03-04T03:38:56;100023.75;;;-1.60;42.51
14295;BME280;7231;59.370;18.016;2023-03-04T03:41:24;100089.72;;;-1.20;42.28
14295;BME280;7231;59.370;18.016;2023-03-04T03:43:52;100086.28;;;-1.20;42.13
14295;BME280;7231;59.370;18.016;2023-03-04T03:46:20;100081.81;;;-1.23;42.13
14295;BME280;7231;59.370;18.016;2023-03-04T03:48:49;100072.47;;;-1.36;42.22
14295;BME280;7231;59.370;18.016;2023-03-04T03:51:17;100087.56;;;-1.27;42.19
14295;BME280;7231;59.370;18.016;2023-03-04T03:53:45;100041.56;;;-1.64;42.30
14295;BME280;7231;59.370;18.016;2023-03-04T03:56:13;100069.03;;;-1.49;42.37
14295;BME280;7231;59.370;18.016;2023-03-04T03:58:41;100079.69;;;-1.43;42.37
14295;BME280;7231;59.370;18.016;2023-03-04T04:01:09;100097.50;;;-1.46;42.59
14295;BME280;7231;59.370;18.016;2023-03-04T04:03:37;100046.31;;;-1.70;42.58
14295;BME280;7231;59.370;18.016;2023-03-04T04:06:07;100104.13;;;-1.50;42.28
14295;BME280;7231;59.370;18.016;2023-03-04T04:08:35;100101.25;;;-1.54;42.51
14295;BME280;7231;59.370;18.016;2023-03-04T04:11:03;100097.59;;;-1.58;42.28
14295;BME280;7231;59.370;18.016;2023-03-04T04:13:31;100102.44;;;-1.63;42.76
14295;BME280;7231;59.370;18.016;2023-03-04T04:15:59;100106.41;;;-1.68;42.27
14295;BME280;7231;59.370;18.016;2023-03-04T04:18:27;100101.84;;;-1.72;42.56
14295;BME280;7231;59.370;18.016;2023-03-04T04:20:55;100091.28;;;-1.76;42.50
14295;BME280;7231;59.370;18.016;2023-03-04T04:23:24;100088.63;;;-1.78;42.29
14295;BME280;7231;59.370;18.016;2023-03-04T04:25:53;100092.88;;;-1.91;41.91
14295;BME280;7231;59.370;18.016;2023-03-04T04:28:22;100084.75;;;-1.84;41.81
14295;BME280;7231;59.370;18.016;2023-03-04T04:30:50;100074.97;;;-2.03;41.80
14295;BME280;7231;59.370;18.016;2023-03-04T04:33:18;100113.50;;;-1.90;41.72
14295;BME280;7231;59.370;18.016;2023-03-04T04:35:46;100109.75;;;-1.95;41.79
14295;BME280;7231;59.370;18.016;2023-03-04T04:38:14;100111.22;;;-1.99;41.81
14295;BME280;7231;59.370;18.016;2023-03-04T04:40:43;100111.03;;;-2.02;41.71
14295;BME280;7231;59.370;18.016;2023-03-04T04:43:11;100107.47;;;-2.04;41.73
14295;BME280;7231;59.370;18.016;2023-03-04T04:45:40;100110.63;;;-2.08;41.62
14295;BME280;7231;59.370;18.016;2023-03-04T04:48:08;100124.38;;;-2.07;41.52
14295;BME280;7231;59.370;18.016;2023-03-04T04:50:35;100103.50;;;-2.12;41.27
14295;BME280;7231;59.370;18.016;2023-03-04T04:53:03;100099.94;;;-2.14;41.01
14295;BME280;7231;59.370;18.016;2023-03-04T04:55:32;100111.41;;;-2.22;41.00
14295;BME280;7231;59.370;18.016;2023-03-04T04:58:04;100064.72;;;-2.54;41.17
14295;BME280;7231;59.370;18.016;2023-03-04T05:00:32;100130.84;;;-2.25;41.01
14295;BME280;7231;59.370;18.016;2023-03-04T05:03:00;100124.13;;;-2.23;40.84
14295;BME280;7231;59.370;18.016;2023-03-04T05:05:28;100126.50;;;-2.26;41.21
14295;BME280;7231;59.370;18.016;2023-03-04T05:07:56;100138.22;;;-2.30;41.64
14295;BME280;7231;59.370;18.016;2023-03-04T05:10:24;100003.59;;;-3.11;41.19
14295;BME280;7231;59.370;18.016;2023-03-04T05:12:52;100136.94;;;-2.37;41.30
14295;BME280;7231;59.370;18.016;2023-03-04T05:15:21;100107.53;;;-2.67;41.27
14295;BME280;7231;59.370;18.016;2023-03-04T05:17:49;99992.19;;;-3.28;41.40
14295;BME280;7231;59.370;18.016;2023-03-04T05:20:17;100146.00;;;-2.42;41.25
14295;BME280;7231;59.370;18.016;2023-03-04T05:22:45;100139.88;;;-2.44;41.29
14295;BME280;7231;59.370;18.016;2023-03-04T05:25:13;100143.13;;;-2.46;41.40
14295;BME280;7231;59.370;18.016;2023-03-04T05:27:41;100145.59;;;-2.48;41.41
14295;BME280;7231;59.370;18.016;2023-03-04T05:30:10;100145.38;;;-2.51;41.49
14295;BME280;7231;59.370;18.016;2023-03-04T05:32:40;100151.19;;;-2.53;41.10
14295;BME280;7231;59.370;18.016;2023-03-04T05:35:08;100135.78;;;-2.67;41.25
14295;BME280;7231;59.370;18.016;2023-03-04T05:37:36;100145.25;;;-2.66;41.60
14295;BME280;7231;59.370;18.016;2023-03-04T05:40:05;100144.97;;;-2.57;41.69
14295;BME280;7231;59.370;18.016;2023-03-04T05:42:34;100158.56;;;-2.58;41.49
14295;BME280;7231;59.370;18.016;2023-03-04T05:45:03;100166.28;;;-2.58;41.56
14295;BME280;7231;59.370;18.016;2023-03-04T05:47:31;100152.63;;;-2.70;41.59
14295;BME280;7231;59.370;18.016;2023-03-04T05:50:00;100151.47;;;-2.62;41.51
14295;BME280;7231;59.370;18.016;2023-03-04T05:52:28;100176.38;;;-2.61;42.02
14295;BME280;7231;59.370;18.016;2023-03-04T05:54:56;100164.88;;;-2.66;41.80
14295;BME280;7231;59.370;18.016;2023-03-04T05:57:24;100159.75;;;-2.66;41.91
14295;BME280;7231;59.370;18.016;2023-03-04T05:59:52;100183.44;;;-2.57;41.66
14295;BME280;7231;59.370;18.016;2023-03-04T06:02:20;100185.22;;;-2.56;41.78
14295;BME280;7231;59.370;18.016;2023-03-04T06:04:48;100170.22;;;-2.63;42.06
14295;BME280;7231;59.370;18.016;2023-03-04T06:07:17;100188.13;;;-2.51;42.06
14295;BME280;7231;59.370;18.016;2023-03-04T06:09:45;100182.09;;;-2.52;41.84
14295;BME280;7231;59.370;18.016;2023-03-04T06:12:13;100182.97;;;-2.51;41.98
14295;BME280;7231;59.370;18.016;2023-03-04T06:14:41;100175.84;;;-2.55;42.20
14295;BME280;7231;59.370;18.016;2023-03-04T06:17:09;100173.00;;;-2.60;42.38
14295;BME280;7231;59.370;18.016;2023-03-04T06:19:37;100184.25;;;-2.58;42.29
14295;BME280;7231;59.370;18.016;2023-03-04T06:22:04;100205.31;;;-2.50;42.26
14295;BME280;7231;59.370;18.016;2023-03-04T06:24:34;100196.72;;;-2.51;42.47
14295;BME280;7231;59.370;18.016;2023-03-04T06:27:03;100154.34;;;-2.82;42.31
14295;BME280;7231;59.370;18.016;2023-03-04T06:29:31;100152.13;;;-2.89;42.53
14295;BME280;7231;59.370;18.016;2023-03-04T06:31:59;100204.47;;;-2.63;42.54
14295;BME280;7231;59.370;18.016;2023-03-04T06:34:27;100214.00;;;-2.48;42.36
14295;BME280;7231;59.370;18.016;2023-03-04T06:36:55;100187.84;;;-2.43;42.48
14295;BME280;7231;59.370;18.016;2023-03-04T06:39:23;100077.44;;;-2.94;42.36
14295;BME280;7231;59.370;18.016;2023-03-04T06:41:53;100192.25;;;-2.29;42.52
14295;BME280;7231;59.370;18.016;2023-03-04T06:44:21;100215.41;;;-2.15;42.88
14295;BME280;7231;59.370;18.016;2023-03-04T06:46:48;100227.25;;;-2.17;42.63
14295;BME280;7231;59.370;18.016;2023-03-04T06:49:16;100187.19;;;-2.40;42.85
14295;BME280;7231;59.370;18.016;2023-03-04T06:51:44;100209.91;;;-2.33;42.73
14295;BME280;7231;59.370;18.016;2023-03-04T06:54:13;100219.44;;;-2.44;43.07
14295;BME280;7231;59.370;18.016;2023-03-04T06:56:41;100231.03;;;-2.37;42.94
14295;BME280;7231;59.370;18.016;2023-03-04T06:59:10;100195.72;;;-2.53;43.22
14295;BME280;7231;59.370;18.016;2023-03-04T07:01:38;100226.78;;;-2.37;43.08
14295;BME280;7231;59.370;18.016;2023-03-04T07:04:06;100230.34;;;-2.35;43.60
14295;BME280;7231;59.370;18.016;2023-03-04T07:06:34;100227.31;;;-2.29;43.52
14295;BME280;7231;59.370;18.016;2023-03-04T07:09:02;100201.91;;;-2.38;43.58
14295;BME280;7231;59.370;18.016;2023-03-04T07:11:30;100231.81;;;-2.13;43.43
14295;BME280;7231;59.370;18.016;2023-03-04T07:13:58;100230.28;;;-1.98;43.95
14295;BME280;7231;59.370;18.016;2023-03-04T07:16:27;100229.03;;;-1.91;44.08
14295;BME280;7231;59.370;18.016;2023-03-04T07:18:55;100239.75;;;-1.72;44.04
14295;BME280;7231;59.370;18.016;2023-03-04T07:21:23;100243.84;;;-1.49;44.31
14295;BME280;7231;59.370;18.016;2023-03-04T07:23:51;100138.53;;;-1.61;44.68
14295;BME280;7231;59.370;18.016;2023-03-04T07:26:20;100231.34;;;-0.77;44.95
14295;BME280;7231;59.370;18.016;2023-03-04T07:28:48;100230.28;;;-0.40;45.00
14295;BME280;7231;59.370;18.016;2023-03-04T07:31:20;100241.28;;;-0.14;44.71
14295;BME280;7231;59.370;18.016;2023-03-04T07:33:51;100216.47;;;0.03;44.77
14295;BME280;7231;59.370;18.016;2023-03-04T07:36:19;100231.81;;;0.44;44.89
14295;BME280;7231;59.370;18.016;2023-03-04T07:38:49;100229.50;;;0.63;44.38
14295;BME280;7231;59.370;18.016;2023-03-04T07:41:22;100199.50;;;0.65;44.27
14295;BME280;7231;59.370;18.016;2023-03-04T07:43:51;100210.16;;;0.86;43.62
14295;BME280;7231;59.370;18.016;2023-03-04T07:46:19;100245.69;;;1.21;43.81
14295;BME280;7231;59.370;18.016;2023-03-04T07:48:47;100234.28;;;1.48;43.46
14295;BME280;7231;59.370;18.016;2023-03-04T07:51:18;100251.75;;;1.69;42.77
14295;BME280;7231;59.370;18.016;2023-03-04T07:53:48;100253.69;;;1.73;43.27
14295;BME280;7231;59.370;18.016;2023-03-04T07:56:18;100239.47;;;1.81;42.79
14295;BME280;7231;59.370;18.016;2023-03-04T07:58:47;100235.03;;;1.78;42.15
14295;BME280;7231;59.370;18.016;2023-03-04T08:01:17;100251.97;;;1.57;41.22
14295;BME280;7231;59.370;18.016;2023-03-04T08:03:45;100248.28;;;1.37;41.21
14295;BME280;7231;59.370;18.016;2023-03-04T08:06:16;100245.00;;;1.09;40.96
14295;BME280;7231;59.370;18.016;2023-03-04T08:08:45;100211.34;;;0.47;41.08
14295;BME280;7231;59.370;18.016;2023-03-04T08:11:15;100261.25;;;0.62;41.10
14295;BME280;7231;59.370;18.016;2023-03-04T08:13:45;100239.97;;;0.37;40.90
14295;BME280;7231;59.370;18.016;2023-03-04T08:16:13;100096.31;;;-0.54;41.15
14295;BME280;7231;59.370;18.016;2023-03-04T08:18:43;100263.66;;;0.59;41.48
14295;BME280;7231;59.370;18.016;2023-03-04T08:21:11;100260.34;;;0.76;41.44
14295;BME280;7231;59.370;18.016;2023-03-04T08:23:41;100263.09;;;0.94;41.31
14295;BME280;7231;59.370;18.016;2023-03-04T08:26:11;100258.63;;;1.06;41.70
14295;BME280;7231;59.370;18.016;2023-03-04T08:28:40;100272.81;;;1.29;41.52
14295;BME280;7231;59.370;18.016;2023-03-04T08:31:08;100269.63;;;1.49;41.25
14295;BME280;7231;59.370;18.016;2023-03-04T08:33:36;100278.31;;;1.82;41.72
14295;BME280;7231;59.370;18.016;2023-03-04T08:36:05;100261.69;;;1.93;41.37
14295;BME280;7231;59.370;18.016;2023-03-04T08:38:33;100273.66;;;2.08;40.79
14295;BME280;7231;59.370;18.016;2023-03-04T08:41:03;100265.78;;;2.22;40.96
14295;BME280;7231;59.370;18.016;2023-03-04T08:43:31;100155.41;;;1.55;40.69
14295;BME280;7231;59.370;18.016;2023-03-04T08:46:00;100284.38;;;2.32;40.71
14295;BME280;7231;59.370;18.016;2023-03-04T08:48:28;100281.22;;;2.21;40.61
14295;BME280;7231;59.370;18.016;2023-03-04T08:50:56;100290.94;;;2.25;40.54
14295;BME280;7231;59.370;18.016;2023-03-04T08:53:24;100264.97;;;2.40;40.94
14295;BME280;7231;59.370;18.016;2023-03-04T08:55:52;100275.22;;;2.72;40.55
14295;BME280;7231;59.370;18.016;2023-03-04T08:58:22;100283.75;;;2.87;39.96
14295;BME280;7231;59.370;18.016;2023-03-04T09:00:50;100128.19;;;1.78;39.73
14295;BME280;7231;59.370;18.016;2023-03-04T09:03:18;100270.13;;;2.40;39.33
14295;BME280;7231;59.370;18.016;2023-03-04T09:05:47;100307.66;;;2.15;39.76
14295;BME280;7231;59.370;18.016;2023-03-04T09:08:16;100204.88;;;1.30;39.49
14295;BME280;7231;59.370;18.016;2023-03-04T09:10:45;100269.81;;;1.21;40.20
14295;BME280;7231;59.370;18.016;2023-03-04T09:13:13;100306.22;;;1.26;39.84
14295;BME280;7231;59.370;18.016;2023-03-04T09:15:45;100317.91;;;1.19;40.59
14295;BME280;7231;59.370;18.016;2023-03-04T09:18:14;100312.53;;;1.31;40.75
14295;BME280;7231;59.370;18.016;2023-03-04T09:20:42;100313.31;;;1.30;41.11
14295;BME280;7231;59.370;18.016;2023-03-04T09:23:11;100296.56;;;1.38;41.53
14295;BME280;7231;59.370;18.016;2023-03-04T09:25:43;100296.69;;;1.56;41.46
14295;BME280;7231;59.370;18.016;2023-03-04T09:28:12;100307.75;;;2.01;42.21
14295;BME280;7231;59.370;18.016;2023-03-04T09:30:40;100272.59;;;2.20;41.42
14295;BME280;7231;59.370;18.016;2023-03-04T09:33:10;100270.19;;;2.57;41.68
14295;BME280;7231;59.370;18.016;2023-03-04T09:35:38;100285.75;;;3.11;41.84
14295;BME280;7231;59.370;18.016;2023-03-04T09:38:06;100276.72;;;3.38;41.68
14295;BME280;7231;59.370;18.016;2023-03-04T09:40:39;100292.63;;;3.83;40.99
14295;BME280;7231;59.370;18.016;2023-03-04T09:43:13;100286.72;;;4.24;40.64
14295;BME280;7231;59.370;18.016;2023-03-04T09:45:47;100288.34;;;4.41;40.60
14295;BME280;7231;59.370;18.016;2023-03-04T09:48:21;100284.16;;;4.64;40.24
14295;BME280;7231;59.370;18.016;2023-03-04T09:51:01;100275.41;;;5.04;39.59
14295;BME280;7231;59.370;18.016;2023-03-04T09:53:39;100211.56;;;4.67;39.39
14295;BME280;7231;59.370;18.016;2023-03-04T09:56:13;100289.94;;;4.99;39.21
14295;BME280;7231;59.370;18.016;2023-03-04T09:58:47;100279.47;;;5.18;39.20
14295;BME280;7231;59.370;18.016;2023-03-04T10:01:21;100279.72;;;5.46;39.39
14295;BME280;7231;59.370;18.016;2023-03-04T10:03:57;100271.25;;;5.74;39.34
14295;BME280;7231;59.370;18.016;2023-03-04T10:06:26;100278.78;;;5.67;37.90
14295;BME280;7231;59.370;18.016;2023-03-04T10:08:58;100273.16;;;5.56;38.73
14295;BME280;7231;59.370;18.016;2023-03-04T10:11:31;100226.47;;;5.37;38.47
14295;BME280;7231;59.370;18.016;2023-03-04T10:14:16;100264.00;;;5.66;37.86
14295;BME280;7231;59.370;18.016;2023-03-04T10:16:51;100260.44;;;5.64;38.54
14295;BME280;7231;59.370;18.016;2023-03-04T10:19:30;100279.47;;;5.85;38.02
14295;BME280;7231;59.370;18.016;2023-03-04T10:22:15;100265.41;;;6.02;38.16
14295;BME280;7231;59.370;18.016;2023-03-04T10:24:44;100280.16;;;6.26;38.13
14295;BME280;7231;59.370;18.016;2023-03-04T10:27:16;100276.81;;;6.30;38.57
14295;BME280;7231;59.370;18.016;2023-03-04T10:29:45;100258.94;;;6.15;38.13
14295;BME280;7231;59.370;18.016;2023-03-04T10:32:16;100219.06;;;5.92;37.59
14295;BME280;7231;59.370;18.016;2023-03-04T10:34:46;100296.97;;;6.59;37.92
14295;BME280;7231;59.370;18.016;2023-03-04T10:37:14;100280.13;;;6.49;37.76
14295;BME280;7231;59.370;18.016;2023-03-04T10:39:43;100272.66;;;6.35;37.77
14295;BME280;7231;59.370;18.016;2023-03-04T10:42:26;100165.91;;;5.39;37.57
14295;BME280;7231;59.370;18.016;2023-03-04T10:44:57;100300.50;;;5.90;37.82
14295;BME280;7231;59.370;18.016;2023-03-04T10:47:27;100287.16;;;6.04;38.50
14295;BME280;7231;59.370;18.016;2023-03-04T10:49:58;100282.03;;;6.30;37.61
14295;BME280;7231;59.370;18.016;2023-03-04T10:52:28;100260.47;;;6.34;38.30
14295;BME280;7231;59.370;18.016;2023-03-04T10:54:57;100286.00;;;6.68;38.11
14295;BME280;7231;59.370;18.016;2023-03-04T10:57:33;100277.13;;;6.63;37.60
14295;BME280;7231;59.370;18.016;2023-03-04T11:00:19;100248.78;;;6.23;37.73
14295;BME280;7231;59.370;18.016;2023-03-04T11:02:50;100235.63;;;5.94;38.01
14295;BME280;7231;59.370;18.016;2023-03-04T11:05:21;100130.00;;;5.29;37.58
14295;BME280;7231;59.370;18.016;2023-03-04T11:07:51;100290.44;;;5.99;37.71
14295;BME280;7231;59.370;18.016;2023-03-04T11:10:24;100283.91;;;5.87;37.85
14295;BME280;7231;59.370;18.016;2023-03-04T11:12:59;100282.44;;;5.72;37.89
14295;BME280;7231;59.370;18.016;2023-03-04T11:15:30;100233.91;;;5.72;38.57
14295;BME280;7231;59.370;18.016;2023-03-04T11:18:02;100292.13;;;6.21;38.27
14295;BME280;7231;59.370;18.016;2023-03-04T11:20:34;100237.28;;;6.16;37.94
14295;BME280;7231;59.370;18.016;2023-03-04T11:23:04;100281.75;;;6.46;37.49
14295;BME280;7231;59.370;18.016;2023-03-04T11:25:35;100247.19;;;6.02;37.83
14295;BME280;7231;59.370;18.016;2023-03-04T11:28:08;100260.75;;;5.94;37.78
14295;BME280;7231;59.370;18.016;2023-03-04T11:30:41;100284.75;;;6.09;38.50
14295;BME280;7231;59.370;18.016;2023-03-04T11:33:16;100292.16;;;6.46;38.67
14295;BME280;7231;59.370;18.016;2023-03-04T11:35:53;100214.72;;;6.40;38.10
14295;BME280;7231;59.370;18.016;2023-03-04T11:38:28;100271.66;;;6.80;37.81
14295;BME280;7231;59.370;18.016;2023-03-04T11:41:03;100270.72;;;6.78;37.33
14295;BME280;7231;59.370;18.016;2023-03-04T11:43:35;100270.94;;;6.84;37.48
14295;BME280;7231;59.370;18.016;2023-03-04T11:49:07;100255.31;;;7.11;36.86
14295;BME280;7231;59.370;18.016;2023-03-04T11:51:46;100270.63;;;7.28;36.67
14295;BME280;7231;59.370;18.016;2023-03-04T11:54:24;100259.31;;;7.27;37.11
14295;BME280;7231;59.370;18.016;2023-03-04T11:56:59;100276.00;;;7.61;37.21
14295;BME280;7231;59.370;18.016;2023-03-04T11:59:58;100280.91;;;7.23;36.76
14295;BME280;7231;59.370;18.016;2023-03-04T12:02:39;100274.78;;;6.70;36.51
14295;BME280;7231;59.370;18.016;2023-03-04T12:05:24;100268.88;;;6.50;36.63
14295;BME280;7231;59.370;18.016;2023-03-04T12:08:07;100253.22;;;6.25;37.26
14295;BME280;7231;59.370;18.016;2023-03-04T12:10:43;100281.47;;;6.14;37.21
14295;BME280;7231;59.370;18.016;2023-03-04T12:13:28;100279.72;;;5.91;37.67
14295;BME280;7231;59.370;18.016;2023-03-04T12:16:10;100272.31;;;5.79;37.17
14295;BME280;7231;59.370;18.016;2023-03-04T12:18:59;100285.75;;;5.68;37.56
14295;BME280;7231;59.370;18.016;2023-03-04T12:21:53;100277.00;;;5.43;37.42
14295;BME280;7231;59.370;18.016;2023-03-04T12:24:37;100265.53;;;4.95;37.84
14295;BME280;7231;59.370;18.016;2023-03-04T12:27:18;100286.38;;;4.97;38.09
14295;BME280;7231;59.370;18.016;2023-03-04T12:29:54;100287.75;;;4.68;38.14
14295;BME280;7231;59.370;18.016;2023-03-04T12:32:29;100296.19;;;4.43;38.72
14295;BME280;7231;59.370;18.016;2023-03-04T12:35:16;100268.00;;;4.31;38.92
14295;BME280;7231;59.370;18.016;2023-03-04T12:40:53;100285.97;;;4.27;38.95
14295;BME280;7231;59.370;18.016;2023-03-04T12:43:40;100292.47;;;4.17;39.11
14295;BME280;7231;59.370;18.016;2023-03-04T12:46:27;100295.31;;;4.04;39.10
14295;BME280;7231;59.370;18.016;2023-03-04T12:49:13;100245.25;;;3.68;39.30
14295;BME280;7231;59.370;18.016;2023-03-04T12:51:50;100286.91;;;3.90;39.16
14295;BME280;7231;59.370;18.016;2023-03-04T12:54:24;100289.09;;;3.81;39.31
14295;BME280;7231;59.370;18.016;2023-03-04T12:57:02;100293.84;;;3.72;39.43
14295;BME280;7231;59.370;18.016;2023-03-04T12:59:36;100291.78;;;3.65;39.64
14295;BME280;7231;59.370;18.016;2023-03-04T13:02:27;100301.13;;;3.61;39.51
14295;BME280;7231;59.370;18.016;2023-03-04T13:05:01;100297.50;;;3.57;39.93
14295;BME280;7231;59.370;18.016;2023-03-04T13:07:40;100311.94;;;3.52;40.70
14295;BME280;7231;59.370;18.016;2023-03-04T13:10:12;100299.41;;;3.62;40.51
14295;BME280;7231;59.370;18.016;2023-03-04T13:12:50;100296.22;;;4.04;41.22
14295;BME280;7231;59.370;18.016;2023-03-04T13:15:31;100308.63;;;5.11;40.73
14295;BME280;7231;59.370;18.016;2023-03-04T13:18:01;100315.03;;;5.19;40.00